CheckWX is a tool to help pilots better visualize weather data.  It is not intended as a substitute for an official pre-flight weather briefing.

06:49:03 UTC

LFOP TAF
Rouen Airport
Rouen/Vallée de Seine, France
TAF LFOP 170500Z 1706/1806 15005KT CAVOK BECMG 1715/1717 36010KT BECMG 1800/1803 06003KT

Jun-17@
06:00 UTC

Jun-17 @ 06:00 UTC

Jun-17@
15:00 UTC

Jun-17 @ 15:00 UTC

TAF LFOP 170500Z 1706/1806 15005KT CAVOK
Wind
  • 150° at 5 KTS
Conditions
No significant weather
Cloud Levels
  • No significant clouds

Jun-17@
15:00 UTC

Jun-17 @ 15:00 UTC

Jun-18@
00:00 UTC

Jun-18 @ 00:00 UTC

BECMG 1715/1717 36010KT

Becoming

Becoming Conditions expected by Mon, Jun 17, 2019 @ 17:00 UTC

Wind
  • 360° at 10 KTS
Conditions
No significant weather
Cloud Levels
  • No significant clouds

Jun-18@
00:00 UTC

Jun-18 @ 00:00 UTC

Jun-18@
06:00 UTC

Jun-18 @ 06:00 UTC

BECMG 1800/1803 06003KT

Becoming

Becoming Conditions expected by Tue, Jun 18, 2019 @ 03:00 UTC

Wind
  • 060° at 3 KTS
Conditions
No significant weather
Cloud Levels
  • No significant clouds